createdAt,value
2022-11-24T00:00:50.166Z,100311.00
2022-11-24T00:03:16.794Z,100309.00
2022-11-24T00:05:43.440Z,100312.00
2022-11-24T00:08:10.310Z,100304.00
2022-11-24T00:10:36.727Z,100309.00
2022-11-24T00:13:03.310Z,100299.00
2022-11-24T00:15:29.789Z,100302.00
2022-11-24T00:17:56.656Z,100306.00
2022-11-24T00:20:23.074Z,100315.00
2022-11-24T00:22:49.771Z,100315.00
2022-11-24T00:25:16.235Z,100313.00
2022-11-24T00:27:42.941Z,100309.00
2022-11-24T00:30:09.911Z,100311.00
2022-11-24T00:32:36.334Z,100313.00
2022-11-24T00:35:02.786Z,100313.00
2022-11-24T00:37:29.282Z,100310.00
2022-11-24T00:39:55.915Z,100307.00
2022-11-24T00:42:22.338Z,100305.00
2022-11-24T00:44:48.959Z,100304.00
2022-11-24T00:47:15.549Z,100303.00
2022-11-24T00:49:41.997Z,100310.00
2022-11-24T00:52:08.530Z,100299.00
2022-11-24T00:54:35.264Z,100302.00
2022-11-24T00:57:01.962Z,100306.00
2022-11-24T00:59:28.410Z,100301.00
2022-11-24T01:01:55.171Z,100313.00
2022-11-24T01:04:21.934Z,100311.00
2022-11-24T01:06:48.437Z,100320.00
2022-11-24T01:09:14.903Z,100308.00
2022-11-24T01:12:00.026Z,100316.00
2022-11-24T01:14:26.888Z,100310.00
2022-11-24T01:16:54.035Z,100317.00
2022-11-24T01:19:20.808Z,100322.00
2022-11-24T01:21:47.487Z,100334.00
2022-11-24T01:24:14.639Z,100330.00
2022-11-24T01:26:41.366Z,100321.00
2022-11-24T01:29:07.976Z,100315.00
2022-11-24T01:31:34.480Z,100316.00
2022-11-24T01:34:00.872Z,100317.00
2022-11-24T01:36:27.302Z,100317.00
2022-11-24T01:38:56.030Z,100308.00
2022-11-24T01:41:25.295Z,100309.00
2022-11-24T01:43:53.193Z,100314.00
2022-11-24T01:46:24.167Z,100316.00
2022-11-24T01:49:11.337Z,100317.00
2022-11-24T01:51:48.145Z,100340.00
2022-11-24T01:54:19.055Z,100336.00
2022-11-24T01:56:47.871Z,100337.00
2022-11-24T01:59:15.715Z,100342.00
2022-11-24T02:01:42.319Z,100339.00
2022-11-24T02:04:13.066Z,100345.00
2022-11-24T02:06:40.688Z,100360.00
2022-11-24T02:09:13.643Z,100357.00
2022-11-24T02:11:40.890Z,100360.00
2022-11-24T02:14:10.071Z,100365.00
2022-11-24T02:16:37.280Z,100358.00
2022-11-24T02:19:14.474Z,100357.00
2022-11-24T02:21:40.886Z,100351.00
2022-11-24T02:24:17.727Z,100346.00
2022-11-24T02:26:46.846Z,100347.00
2022-11-24T02:29:14.322Z,100353.00
2022-11-24T02:31:46.802Z,100347.00
2022-11-24T02:34:13.206Z,100351.00
2022-11-24T02:36:39.691Z,100354.00
2022-11-24T02:39:12.090Z,100358.00
2022-11-24T02:41:42.657Z,100360.00
2022-11-24T02:44:09.243Z,100356.00
2022-11-24T02:46:35.796Z,100361.00
2022-11-24T02:49:02.279Z,100358.00
2022-11-24T02:51:29.569Z,100356.00
2022-11-24T02:53:56.012Z,100354.00
2022-11-24T02:56:22.560Z,100360.00
2022-11-24T02:58:49.020Z,100354.00
2022-11-24T03:01:15.462Z,100359.00
2022-11-24T03:03:42.013Z,100353.00
2022-11-24T03:06:08.628Z,100361.00
2022-11-24T03:08:35.144Z,100369.00
2022-11-24T03:11:02.273Z,100366.00
2022-11-24T03:13:29.187Z,100365.00
2022-11-24T03:15:55.648Z,100356.00
2022-11-24T03:18:22.249Z,100360.00
2022-11-24T03:20:48.678Z,100361.00
2022-11-24T03:23:15.110Z,100372.00
2022-11-24T03:25:41.652Z,100384.00
2022-11-24T03:28:08.211Z,100377.00
2022-11-24T03:30:34.636Z,100383.00
2022-11-24T03:33:01.055Z,100379.00
2022-11-24T03:35:27.673Z,100390.00
2022-11-24T03:37:54.078Z,100379.00
2022-11-24T03:40:20.531Z,100381.00
2022-11-24T03:42:47.038Z,100372.00
2022-11-24T03:47:59.895Z,100389.00
2022-11-24T03:50:26.366Z,100380.00
2022-11-24T03:52:52.825Z,100390.00
2022-11-24T03:55:19.266Z,100388.00
2022-11-24T03:57:45.723Z,100403.00
2022-11-24T04:00:12.429Z,100394.00
2022-11-24T04:02:39.012Z,100403.00
2022-11-24T04:05:06.055Z,100411.00
2022-11-24T04:07:32.554Z,100416.00
2022-11-24T04:09:59.065Z,100415.00
2022-11-24T04:12:44.059Z,100402.00
2022-11-24T04:15:16.007Z,100416.00
2022-11-24T04:17:42.850Z,100412.00
2022-11-24T04:20:10.552Z,100406.00
2022-11-24T04:22:37.009Z,100397.00
2022-11-24T04:25:04.984Z,100394.00
2022-11-24T04:27:33.296Z,100399.00
2022-11-24T04:30:00.153Z,100389.00
2022-11-24T04:32:26.631Z,100395.00
2022-11-24T04:34:53.108Z,100401.00
2022-11-24T04:37:19.660Z,100418.00
2022-11-24T04:39:46.397Z,100424.00
2022-11-24T04:42:13.374Z,100425.00
2022-11-24T04:44:40.059Z,100426.00
2022-11-24T04:47:06.596Z,100436.00
2022-11-24T04:49:33.062Z,100444.00
2022-11-24T04:51:59.475Z,100438.00
2022-11-24T04:54:25.882Z,100450.00
2022-11-24T04:56:52.702Z,100453.00
2022-11-24T04:59:19.435Z,100459.00
2022-11-24T05:01:46.700Z,100462.00
2022-11-24T05:04:15.205Z,100460.00
2022-11-24T05:06:41.789Z,100458.00
2022-11-24T05:09:08.868Z,100458.00
2022-11-24T05:11:35.415Z,100472.00
2022-11-24T05:14:02.190Z,100475.00
2022-11-24T05:16:28.838Z,100472.00
2022-11-24T05:18:55.312Z,100473.00
2022-11-24T05:21:21.710Z,100468.00
2022-11-24T05:23:48.116Z,100477.00
2022-11-24T05:26:14.587Z,100483.00
2022-11-24T05:28:41.037Z,100485.00
2022-11-24T05:31:07.577Z,100477.00
2022-11-24T05:33:34.161Z,100483.00
2022-11-24T05:36:02.402Z,100480.00
2022-11-24T05:38:30.140Z,100491.00
2022-11-24T05:41:04.352Z,100491.00
2022-11-24T05:43:30.972Z,100490.00
2022-11-24T05:46:01.378Z,100492.00
2022-11-24T05:48:28.335Z,100490.00
2022-11-24T05:50:56.265Z,100495.00
2022-11-24T05:53:23.176Z,100496.00
2022-11-24T05:55:49.768Z,100502.00
2022-11-24T05:58:16.195Z,100505.00
2022-11-24T06:00:42.820Z,100496.00
2022-11-24T06:03:11.028Z,100494.00
2022-11-24T06:05:37.576Z,100505.00
2022-11-24T06:08:05.292Z,100511.00
2022-11-24T06:10:31.753Z,100503.00
2022-11-24T06:12:58.196Z,100510.00
2022-11-24T06:15:24.651Z,100516.00
2022-11-24T06:17:55.674Z,100515.00
2022-11-24T06:20:27.008Z,100520.00
2022-11-24T06:22:58.819Z,100533.00
2022-11-24T06:25:25.382Z,100529.00
2022-11-24T06:27:52.039Z,100535.00
2022-11-24T06:30:18.429Z,100532.00
2022-11-24T06:32:49.321Z,100534.00
2022-11-24T06:35:16.606Z,100541.00
2022-11-24T06:37:43.051Z,100536.00
2022-11-24T06:40:10.349Z,100553.00
2022-11-24T06:42:37.284Z,100548.00
2022-11-24T06:45:08.800Z,100550.00
2022-11-24T06:47:36.174Z,100550.00
2022-11-24T06:50:02.685Z,100556.00
2022-11-24T06:52:29.169Z,100547.00
2022-11-24T06:54:55.651Z,100553.00
2022-11-24T06:57:22.076Z,100555.00
2022-11-24T06:59:48.559Z,100552.00
2022-11-24T07:02:15.142Z,100559.00
2022-11-24T07:04:41.577Z,100556.00
2022-11-24T07:07:08.250Z,100554.00
2022-11-24T07:09:34.678Z,100557.00
2022-11-24T07:12:02.245Z,100557.00
2022-11-24T07:14:28.704Z,100567.00
2022-11-24T07:16:55.190Z,100567.00
2022-11-24T07:19:24.883Z,100570.00
2022-11-24T07:21:51.786Z,100569.00
2022-11-24T07:24:18.823Z,100574.00
2022-11-24T07:26:45.359Z,100578.00
2022-11-24T07:29:11.801Z,100575.00
2022-11-24T07:31:38.316Z,100581.00
2022-11-24T07:34:05.041Z,100582.00
2022-11-24T07:36:31.570Z,100589.00
2022-11-24T07:38:58.070Z,100588.00
2022-11-24T07:41:24.757Z,100592.00
2022-11-24T07:43:51.835Z,100595.00
2022-11-24T07:46:19.835Z,100591.00
2022-11-24T07:48:47.833Z,100604.00
2022-11-24T07:51:14.753Z,100603.00
2022-11-24T07:53:41.305Z,100607.00
2022-11-24T07:56:09.261Z,100611.00
2022-11-24T07:58:37.079Z,100612.00
2022-11-24T08:01:15.470Z,100608.00
2022-11-24T08:03:43.016Z,100606.00
2022-11-24T08:06:30.288Z,100604.00
2022-11-24T08:08:57.231Z,100618.00
2022-11-24T08:11:23.969Z,100609.00
2022-11-24T08:13:50.459Z,100602.00
2022-11-24T08:16:18.837Z,100604.00
2022-11-24T08:18:50.750Z,100613.00
2022-11-24T08:21:17.771Z,100613.00
2022-11-24T08:23:44.361Z,100613.00
2022-11-24T08:26:17.602Z,100615.00
2022-11-24T08:28:45.383Z,100613.00
2022-11-24T08:31:15.143Z,100625.00
2022-11-24T08:33:42.306Z,100623.00
2022-11-24T08:36:14.968Z,100626.00
2022-11-24T08:38:41.892Z,100618.00
2022-11-24T08:41:11.958Z,100608.00
2022-11-24T08:43:38.738Z,100606.00
2022-11-24T08:46:07.604Z,100612.00
2022-11-24T08:48:34.513Z,100617.00
2022-11-24T08:51:07.883Z,100618.00
2022-11-24T08:53:34.281Z,100614.00
2022-11-24T08:56:01.282Z,100616.00
2022-11-24T08:58:31.264Z,100634.00
2022-11-24T09:01:07.350Z,100642.00
2022-11-24T09:03:34.783Z,100644.00
2022-11-24T09:06:02.375Z,100646.00
2022-11-24T09:08:32.392Z,100649.00
2022-11-24T09:11:03.718Z,100651.00
2022-11-24T09:13:30.216Z,100641.00
2022-11-24T09:15:56.687Z,100655.00
2022-11-24T09:18:27.492Z,100636.00
2022-11-24T09:21:11.646Z,100639.00
2022-11-24T09:23:38.253Z,100636.00
2022-11-24T09:26:05.690Z,100644.00
2022-11-24T09:28:32.192Z,100644.00
2022-11-24T09:31:03.612Z,100662.00
2022-11-24T09:33:31.565Z,100664.00
2022-11-24T09:35:58.671Z,100660.00
2022-11-24T09:38:25.507Z,100660.00
2022-11-24T09:40:54.473Z,100668.00
2022-11-24T09:43:47.962Z,100671.00
2022-11-24T09:46:25.780Z,100670.00
2022-11-24T09:48:56.579Z,100671.00
2022-11-24T09:51:27.014Z,100660.00
2022-11-24T09:53:57.953Z,100663.00
2022-11-24T09:56:27.904Z,100662.00
2022-11-24T09:59:05.285Z,100653.00
2022-11-24T10:01:35.661Z,100664.00
2022-11-24T10:04:06.217Z,100658.00
2022-11-24T10:06:43.824Z,100657.00
2022-11-24T10:09:36.660Z,100651.00
2022-11-24T10:12:23.482Z,100659.00
2022-11-24T10:15:11.058Z,100675.00
2022-11-24T10:17:46.542Z,100674.00
2022-11-24T10:20:24.149Z,100682.00
2022-11-24T10:23:54.065Z,100680.00
2022-11-24T10:26:34.976Z,100675.00
2022-11-24T10:29:02.788Z,100679.00
2022-11-24T10:31:34.192Z,100680.00
2022-11-24T10:34:16.518Z,100683.00
2022-11-24T10:37:07.120Z,100693.00
2022-11-24T10:40:00.968Z,100683.00
2022-11-24T10:42:33.386Z,100679.00
2022-11-24T10:45:09.325Z,100679.00
2022-11-24T10:47:35.861Z,100676.00
2022-11-24T10:50:17.591Z,100678.00
2022-11-24T10:52:50.744Z,100685.00
2022-11-24T10:55:17.170Z,100684.00
2022-11-24T10:57:45.121Z,100691.00
2022-11-24T11:00:20.771Z,100700.00
2022-11-24T11:02:48.833Z,100688.00
2022-11-24T11:05:41.730Z,100691.00
2022-11-24T11:08:14.282Z,100690.00
2022-11-24T11:10:42.306Z,100699.00
2022-11-24T11:13:23.238Z,100699.00
2022-11-24T11:15:49.932Z,100702.00
2022-11-24T11:18:18.249Z,100700.00
2022-11-24T11:20:56.370Z,100696.00
2022-11-24T11:23:25.545Z,100699.00
2022-11-24T11:26:11.878Z,100693.00
2022-11-24T11:28:38.394Z,100694.00
2022-11-24T11:31:22.808Z,100691.00
2022-11-24T11:34:23.280Z,100677.00
2022-11-24T11:36:56.051Z,100680.00
2022-11-24T11:39:31.030Z,100677.00
2022-11-24T11:42:07.246Z,100677.00
2022-11-24T11:44:41.752Z,100683.00
2022-11-24T11:47:15.539Z,100686.00
2022-11-24T11:49:42.062Z,100686.00
2022-11-24T11:52:23.051Z,100692.00
2022-11-24T11:54:58.840Z,100691.00
2022-11-24T11:57:54.525Z,100698.00
2022-11-24T12:00:22.440Z,100701.00
2022-11-24T12:03:20.405Z,100709.00
2022-11-24T12:06:00.217Z,100710.00
2022-11-24T12:08:56.012Z,100715.00
2022-11-24T12:11:42.609Z,100715.00
2022-11-24T12:14:42.809Z,100709.00
2022-11-24T12:17:24.836Z,100716.00
2022-11-24T12:20:15.253Z,100722.00
2022-11-24T12:22:53.722Z,100716.00
2022-11-24T12:25:41.963Z,100713.00
2022-11-24T12:28:18.182Z,100709.00
2022-11-24T12:31:04.781Z,100714.00
2022-11-24T12:34:03.881Z,100719.00
2022-11-24T12:36:45.320Z,100720.00
2022-11-24T12:39:37.149Z,100716.00
2022-11-24T12:42:35.685Z,100714.00
2022-11-24T12:45:15.734Z,100712.00
2022-11-24T12:47:53.418Z,100722.00
2022-11-24T12:50:24.260Z,100719.00
2022-11-24T12:52:58.877Z,100726.00
2022-11-24T12:55:27.636Z,100731.00
2022-11-24T12:58:09.334Z,100723.00
2022-11-24T13:01:16.666Z,100727.00
2022-11-24T13:04:10.236Z,100727.00
2022-11-24T13:06:49.404Z,100726.00
2022-11-24T13:09:16.815Z,100734.00
2022-11-24T13:11:46.952Z,100730.00
2022-11-24T13:14:22.091Z,100730.00
2022-11-24T13:17:28.066Z,100722.00
2022-11-24T13:19:39.060Z,100718.00
2022-11-24T13:22:08.434Z,100723.00
2022-11-24T13:24:37.387Z,100727.00
2022-11-24T13:27:13.310Z,100742.00
2022-11-24T13:29:41.820Z,100744.00
2022-11-24T13:32:08.233Z,100734.00
2022-11-24T13:34:40.631Z,100743.00
2022-11-24T13:37:33.667Z,100750.00
2022-11-24T13:40:11.311Z,100774.00
2022-11-24T13:43:01.658Z,100768.00
2022-11-24T13:45:41.173Z,100782.00
2022-11-24T13:48:20.195Z,100787.00
2022-11-24T13:50:50.197Z,100780.00
2022-11-24T13:53:34.106Z,100788.00
2022-11-24T13:56:09.834Z,100791.00
2022-11-24T13:58:47.848Z,100784.00
2022-11-24T14:01:24.076Z,100781.00
2022-11-24T14:04:34.977Z,100784.00
2022-11-24T14:09:54.072Z,100793.00
2022-11-24T14:12:23.216Z,100801.00
2022-11-24T14:14:51.626Z,100812.00
2022-11-24T14:17:24.188Z,100810.00
2022-11-24T14:19:53.425Z,100805.00
2022-11-24T14:22:21.617Z,100818.00
2022-11-24T14:24:53.662Z,100817.00
2022-11-24T14:27:26.119Z,100822.00
2022-11-24T14:29:57.792Z,100826.00
2022-11-24T14:32:24.528Z,100821.00
2022-11-24T14:34:52.143Z,100827.00
2022-11-24T14:37:21.477Z,100824.00
2022-11-24T14:39:48.435Z,100823.00
2022-11-24T14:42:23.845Z,100821.00
2022-11-24T14:44:54.298Z,100822.00
2022-11-24T14:47:31.363Z,100821.00
2022-11-24T14:50:10.713Z,100831.00
2022-11-24T14:52:44.497Z,100839.00
2022-11-24T14:55:27.216Z,100849.00
2022-11-24T14:57:53.873Z,100835.00
2022-11-24T15:00:28.313Z,100837.00
2022-11-24T15:03:08.230Z,100850.00
2022-11-24T15:05:55.656Z,100843.00
2022-11-24T15:08:24.606Z,100848.00
2022-11-24T15:10:58.495Z,100836.00
2022-11-24T15:13:25.256Z,100849.00
2022-11-24T15:16:01.815Z,100860.00
2022-11-24T15:18:41.938Z,100856.00
2022-11-24T15:21:12.953Z,100862.00
2022-11-24T15:23:42.836Z,100865.00
2022-11-24T15:26:11.948Z,100873.00
2022-11-24T15:28:38.813Z,100874.00
2022-11-24T15:31:09.537Z,100873.00
2022-11-24T15:33:36.486Z,100873.00
2022-11-24T15:36:02.927Z,100875.00
2022-11-24T15:38:29.454Z,100880.00
2022-11-24T15:40:59.035Z,100880.00
2022-11-24T15:43:34.129Z,100890.00
2022-11-24T15:46:01.439Z,100891.00
2022-11-24T15:48:28.869Z,100889.00
2022-11-24T15:50:56.910Z,100890.00
2022-11-24T15:53:28.016Z,100897.00
2022-11-24T15:55:56.314Z,100906.00
2022-11-24T15:58:23.336Z,100894.00
2022-11-24T16:00:50.970Z,100893.00
2022-11-24T16:03:45.642Z,100895.00
2022-11-24T16:06:03.907Z,100897.00
2022-11-24T16:08:30.393Z,100897.00
2022-11-24T16:10:56.822Z,100894.00
2022-11-24T16:13:23.227Z,100886.00
2022-11-24T16:15:49.988Z,100901.00
2022-11-24T16:18:16.578Z,100898.00
2022-11-24T16:20:42.987Z,100904.00
2022-11-24T16:23:09.426Z,100906.00
2022-11-24T16:25:36.285Z,100914.00
2022-11-24T16:28:02.779Z,100910.00
2022-11-24T16:30:29.207Z,100917.00
2022-11-24T16:32:55.684Z,100911.00
2022-11-24T16:35:22.105Z,100912.00
2022-11-24T16:37:51.536Z,100924.00
2022-11-24T16:40:18.321Z,100924.00
2022-11-24T16:42:44.898Z,100924.00
2022-11-24T16:45:12.965Z,100908.00
2022-11-24T16:47:41.574Z,100920.00
2022-11-24T16:50:09.984Z,100923.00
2022-11-24T16:52:36.717Z,100921.00
2022-11-24T16:55:04.026Z,100926.00
2022-11-24T16:57:30.682Z,100930.00
2022-11-24T16:59:57.093Z,100925.00
2022-11-24T17:02:23.606Z,100938.00
2022-11-24T17:04:52.423Z,100936.00
2022-11-24T17:07:19.793Z,100932.00
2022-11-24T17:09:46.275Z,100942.00
2022-11-24T17:12:12.709Z,100936.00
2022-11-24T17:14:39.179Z,100938.00
2022-11-24T17:17:05.668Z,100929.00
2022-11-24T17:19:32.228Z,100942.00
2022-11-24T17:21:58.804Z,100933.00
2022-11-24T17:24:25.236Z,100927.00
2022-11-24T17:26:51.671Z,100930.00
2022-11-24T17:29:18.516Z,100931.00
2022-11-24T17:31:45.036Z,100936.00
2022-11-24T17:34:12.153Z,100945.00
2022-11-24T17:36:39.732Z,100947.00
2022-11-24T17:39:07.141Z,100951.00
2022-11-24T17:41:34.062Z,100943.00
2022-11-24T17:44:01.190Z,100945.00
2022-11-24T17:46:29.252Z,100957.00
2022-11-24T17:48:55.782Z,100956.00
2022-11-24T17:51:24.485Z,100952.00
2022-11-24T17:53:52.366Z,100953.00
2022-11-24T17:56:24.953Z,100966.00
2022-11-24T17:58:56.365Z,100966.00
2022-11-24T18:01:23.267Z,100959.00
2022-11-24T18:03:53.375Z,100961.00
2022-11-24T18:06:20.544Z,100958.00
2022-11-24T18:08:47.602Z,100961.00
2022-11-24T18:11:30.546Z,100961.00
2022-11-24T18:14:01.437Z,100964.00
2022-11-24T18:16:30.347Z,100967.00
2022-11-24T18:19:08.416Z,100964.00
2022-11-24T18:21:40.847Z,100960.00
2022-11-24T18:24:11.573Z,100971.00
2022-11-24T18:26:39.247Z,100983.00
2022-11-24T18:29:05.963Z,100981.00
2022-11-24T18:31:34.207Z,100978.00
2022-11-24T18:34:01.479Z,100978.00
2022-11-24T18:36:30.539Z,100983.00
2022-11-24T18:39:00.054Z,100974.00
2022-11-24T18:41:27.073Z,100981.00
2022-11-24T18:43:53.499Z,100976.00
2022-11-24T18:46:19.984Z,100979.00
2022-11-24T18:48:46.995Z,100978.00
2022-11-24T18:51:14.625Z,100971.00
2022-11-24T18:53:42.712Z,100969.00
2022-11-24T18:56:13.743Z,100978.00
2022-11-24T18:58:40.350Z,100967.00
2022-11-24T19:01:14.438Z,100971.00
2022-11-24T19:03:48.360Z,100986.00
2022-11-24T19:06:18.781Z,100978.00
2022-11-24T19:08:45.610Z,100975.00
2022-11-24T19:11:22.472Z,100978.00
2022-11-24T19:13:49.539Z,100975.00
2022-11-24T19:16:17.314Z,100977.00
2022-11-24T19:18:46.486Z,100973.00
2022-11-24T19:21:17.900Z,100978.00
2022-11-24T19:23:44.330Z,100984.00
2022-11-24T19:26:11.047Z,100994.00
2022-11-24T19:28:37.543Z,100980.00
2022-11-24T19:31:06.994Z,100986.00
2022-11-24T19:33:33.830Z,100986.00
2022-11-24T19:36:05.768Z,100986.00
2022-11-24T19:38:33.459Z,100989.00
2022-11-24T19:41:08.717Z,100994.00
2022-11-24T19:43:35.246Z,100997.00
2022-11-24T19:46:09.792Z,100984.00
2022-11-24T19:48:38.277Z,100995.00
2022-11-24T19:51:07.476Z,101001.00
2022-11-24T19:53:34.881Z,100999.00
2022-11-24T19:56:06.514Z,101009.00
2022-11-24T19:58:32.970Z,101009.00
2022-11-24T20:01:07.036Z,101014.00
2022-11-24T20:03:33.996Z,101020.00
2022-11-24T20:06:00.465Z,101017.00
2022-11-24T20:08:31.151Z,101021.00
2022-11-24T20:11:05.973Z,101017.00
2022-11-24T20:13:34.597Z,101032.00
2022-11-24T20:16:10.037Z,101036.00
2022-11-24T20:18:41.967Z,101036.00
2022-11-24T20:21:12.033Z,101045.00
2022-11-24T20:23:39.518Z,101044.00
2022-11-24T20:26:08.709Z,101050.00
2022-11-24T20:28:35.199Z,101050.00
2022-11-24T20:31:10.210Z,101050.00
2022-11-24T20:33:37.425Z,101059.00
2022-11-24T20:36:06.202Z,101058.00
2022-11-24T20:38:34.384Z,101056.00
2022-11-24T20:41:07.561Z,101052.00
2022-11-24T20:43:35.884Z,101051.00
2022-11-24T20:46:14.915Z,101058.00
2022-11-24T20:48:41.521Z,101050.00
2022-11-24T20:51:11.250Z,101050.00
2022-11-24T20:53:38.749Z,101053.00
2022-11-24T20:56:08.123Z,101055.00
2022-11-24T20:58:35.969Z,101053.00
2022-11-24T21:01:05.877Z,101058.00
2022-11-24T21:03:34.639Z,101056.00
2022-11-24T21:06:03.942Z,101046.00
2022-11-24T21:08:36.152Z,101056.00
2022-11-24T21:11:03.484Z,101059.00
2022-11-24T21:13:33.682Z,101055.00
2022-11-24T21:16:01.328Z,101051.00
2022-11-24T21:18:27.826Z,101059.00
2022-11-24T21:20:54.209Z,101063.00
2022-11-24T21:23:20.670Z,101058.00
2022-11-24T21:25:47.083Z,101056.00
2022-11-24T21:28:13.724Z,101059.00
2022-11-24T21:30:40.278Z,101064.00
2022-11-24T21:33:07.051Z,101054.00
2022-11-24T21:35:36.876Z,101058.00
2022-11-24T21:38:03.961Z,101062.00
2022-11-24T21:40:30.432Z,101066.00
2022-11-24T21:42:59.344Z,101063.00
2022-11-24T21:45:28.933Z,101075.00
2022-11-24T21:47:59.926Z,101067.00
2022-11-24T21:50:26.392Z,101070.00
2022-11-24T21:52:52.852Z,101079.00
2022-11-24T21:55:19.331Z,101081.00
2022-11-24T21:57:46.331Z,101083.00
2022-11-24T22:00:13.253Z,101086.00
2022-11-24T22:02:39.769Z,101090.00
2022-11-24T22:05:06.634Z,101095.00
2022-11-24T22:07:33.202Z,101096.00
2022-11-24T22:09:59.624Z,101094.00
2022-11-24T22:12:26.066Z,101099.00
2022-11-24T22:14:52.485Z,101085.00
2022-11-24T22:17:18.972Z,101094.00
2022-11-24T22:19:47.796Z,101089.00
2022-11-24T22:22:14.247Z,101105.00
2022-11-24T22:24:41.078Z,101095.00
2022-11-24T22:27:07.745Z,101100.00
2022-11-24T22:29:34.166Z,101103.00
2022-11-24T22:32:00.774Z,101110.00
2022-11-24T22:34:27.251Z,101096.00
2022-11-24T22:36:53.745Z,101112.00
2022-11-24T22:39:20.185Z,101103.00
2022-11-24T22:41:46.711Z,101105.00
2022-11-24T22:44:13.152Z,101105.00
2022-11-24T22:46:39.545Z,101102.00
2022-11-24T22:49:05.972Z,101089.00
2022-11-24T22:51:34.518Z,101106.00
2022-11-24T22:54:02.842Z,101114.00
2022-11-24T22:56:32.033Z,101110.00
2022-11-24T22:58:59.598Z,101110.00
2022-11-24T23:01:27.586Z,101115.00
2022-11-24T23:03:54.508Z,101103.00
2022-11-24T23:06:23.691Z,101109.00
2022-11-24T23:08:50.963Z,101111.00
2022-11-24T23:11:29.142Z,101110.00
2022-11-24T23:14:00.404Z,101114.00
2022-11-24T23:16:27.617Z,101114.00
2022-11-24T23:18:54.566Z,101113.00
2022-11-24T23:21:27.185Z,101113.00
2022-11-24T23:23:54.029Z,101107.00
2022-11-24T23:26:23.426Z,101115.00
2022-11-24T23:28:50.337Z,101112.00
2022-11-24T23:31:22.154Z,101104.00
2022-11-24T23:33:48.631Z,101108.00
2022-11-24T23:36:17.260Z,101119.00
2022-11-24T23:38:45.086Z,101111.00
2022-11-24T23:41:14.643Z,101111.00
2022-11-24T23:43:42.154Z,101116.00
2022-11-24T23:46:14.659Z,101123.00
2022-11-24T23:48:41.527Z,101124.00
2022-11-24T23:51:12.184Z,101120.00
2022-11-24T23:53:38.627Z,101128.00
2022-11-24T23:56:05.848Z,101125.00
2022-11-24T23:58:33.589Z,101121.00
